sensor_id;sensor_type;location;lat;lon;timestamp;pressure;altitude;pressure_sealevel;temperature;humidity
57442;BME280;43284;47.042;15.498;2023-03-18T00:01:17;97150.22;;;0.64;65.05
57442;BME280;43284;47.042;15.498;2023-03-18T00:03:43;97157.09;;;0.60;65.78
57442;BME280;43284;47.042;15.498;2023-03-18T00:06:15;97158.88;;;0.57;65.74
57442;BME280;43284;47.042;15.498;2023-03-18T00:08:43;97153.75;;;0.54;65.60
57442;BME280;43284;47.042;15.498;2023-03-18T00:11:11;97160.59;;;0.55;65.02
57442;BME280;43284;47.042;15.498;2023-03-18T00:13:38;97161.50;;;0.51;64.58
57442;BME280;43284;47.042;15.498;2023-03-18T00:16:06;97158.09;;;0.47;64.91
57442;BME280;43284;47.042;15.498;2023-03-18T00:18:34;97155.50;;;0.46;65.57
57442;BME280;43284;47.042;15.498;2023-03-18T00:21:00;97158.13;;;0.43;66.47
57442;BME280;43284;47.042;15.498;2023-03-18T00:23:26;97158.13;;;0.43;66.54
57442;BME280;43284;47.042;15.498;2023-03-18T00:25:55;97157.34;;;0.34;66.57
57442;BME280;43284;47.042;15.498;2023-03-18T00:28:24;97161.63;;;0.34;67.32
57442;BME280;43284;47.042;15.498;2023-03-18T00:30:52;97147.13;;;0.27;66.60
57442;BME280;43284;47.042;15.498;2023-03-18T00:33:18;97142.88;;;0.23;66.14
57442;BME280;43284;47.042;15.498;2023-03-18T00:35:45;97152.31;;;0.20;66.68
57442;BME280;43284;47.042;15.498;2023-03-18T00:38:12;97145.47;;;0.16;67.49
57442;BME280;43284;47.042;15.498;2023-03-18T00:40:48;97151.50;;;0.15;67.13
57442;BME280;43284;47.042;15.498;2023-03-18T00:43:19;97145.53;;;0.10;67.08
57442;BME280;43284;47.042;15.498;2023-03-18T00:45:48;97137.84;;;0.07;66.46
57442;BME280;43284;47.042;15.498;2023-03-18T00:48:16;97142.97;;;0.09;66.38
57442;BME280;43284;47.042;15.498;2023-03-18T00:50:42;97147.25;;;0.08;66.62
57442;BME280;43284;47.042;15.498;2023-03-18T00:53:10;97138.78;;;0.00;66.16
57442;BME280;43284;47.042;15.498;2023-03-18T00:55:36;97143.03;;;0.03;68.16
57442;BME280;43284;47.042;15.498;2023-03-18T00:58:02;97143.03;;;0.01;67.56
57442;BME280;43284;47.042;15.498;2023-03-18T01:00:28;97143.91;;;-0.03;66.50
57442;BME280;43284;47.042;15.498;2023-03-18T01:02:54;97142.22;;;-0.06;66.72
57442;BME280;43284;47.042;15.498;2023-03-18T01:05:21;97137.13;;;-0.09;66.46
57442;BME280;43284;47.042;15.498;2023-03-18T01:07:48;97142.22;;;-0.06;67.75
57442;BME280;43284;47.042;15.498;2023-03-18T01:10:14;97135.34;;;-0.07;68.26
57442;BME280;43284;47.042;15.498;2023-03-18T01:12:44;97128.56;;;-0.14;66.77
57442;BME280;43284;47.042;15.498;2023-03-18T01:15:16;97128.59;;;-0.17;67.29
57442;BME280;43284;47.042;15.498;2023-03-18T01:17:42;97132.84;;;-0.16;67.55
57442;BME280;43284;47.042;15.498;2023-03-18T01:20:10;97126.03;;;-0.17;67.74
57442;BME280;43284;47.042;15.498;2023-03-18T01:22:36;97129.44;;;-0.16;67.75
57442;BME280;43284;47.042;15.498;2023-03-18T01:25:02;97132.91;;;-0.19;67.75
57442;BME280;43284;47.042;15.498;2023-03-18T01:27:28;97132.00;;;-0.18;67.87
57442;BME280;43284;47.042;15.498;2023-03-18T01:29:54;97126.03;;;-0.20;67.54
57442;BME280;43284;47.042;15.498;2023-03-18T01:32:19;97126.91;;;-0.21;68.51
57442;BME280;43284;47.042;15.498;2023-03-18T01:34:46;97127.78;;;-0.27;67.47
57442;BME280;43284;47.042;15.498;2023-03-18T01:37:12;97129.50;;;-0.27;68.15
57442;BME280;43284;47.042;15.498;2023-03-18T01:39:38;97133.81;;;-0.29;68.43
57442;BME280;43284;47.042;15.498;2023-03-18T01:42:04;97126.97;;;-0.32;68.07
57442;BME280;43284;47.042;15.498;2023-03-18T01:44:30;97126.97;;;-0.32;67.24
57442;BME280;43284;47.042;15.498;2023-03-18T01:46:56;97126.97;;;-0.33;67.21
57442;BME280;43284;47.042;15.498;2023-03-18T01:49:37;97124.41;;;-0.32;66.96
57442;BME280;43284;47.042;15.498;2023-03-18T01:52:10;97126.94;;;-0.29;66.01
57442;BME280;43284;47.042;15.498;2023-03-18T01:54:44;97127.81;;;-0.28;65.45
57442;BME280;43284;47.042;15.498;2023-03-18T01:57:10;97126.06;;;-0.23;67.25
57442;BME280;43284;47.042;15.498;2023-03-18T01:59:39;97126.91;;;-0.24;67.05
57442;BME280;43284;47.042;15.498;2023-03-18T02:02:12;97132.94;;;-0.25;66.59
57442;BME280;43284;47.042;15.498;2023-03-18T02:04:41;97123.53;;;-0.26;65.56
57442;BME280;43284;47.042;15.498;2023-03-18T02:07:14;97126.06;;;-0.23;66.55
57442;BME280;43284;47.042;15.498;2023-03-18T02:09:40;97123.47;;;-0.20;66.39
57442;BME280;43284;47.042;15.498;2023-03-18T02:12:07;97127.78;;;-0.24;66.13
57442;BME280;43284;47.042;15.498;2023-03-18T02:14:33;97126.09;;;-0.31;65.76
57442;BME280;43284;47.042;15.498;2023-03-18T02:17:07;97129.56;;;-0.39;65.43
57442;BME280;43284;47.042;15.498;2023-03-18T02:22:29;97129.56;;;-0.38;64.70
57442;BME280;43284;47.042;15.498;2023-03-18T02:25:23;97122.72;;;-0.33;63.99
57442;BME280;43284;47.042;15.498;2023-03-18T02:28:01;97135.59;;;-0.39;64.46
57442;BME280;43284;47.042;15.498;2023-03-18T02:30:32;97133.94;;;-0.54;65.95
57442;BME280;43284;47.042;15.498;2023-03-18T02:33:00;97127.13;;;-0.58;66.82
57442;BME280;43284;47.042;15.498;2023-03-18T02:35:27;97136.53;;;-0.54;67.84
57442;BME280;43284;47.042;15.498;2023-03-18T02:37:54;97131.41;;;-0.58;67.52
57442;BME280;43284;47.042;15.498;2023-03-18T02:40:29;97131.38;;;-0.57;68.04
57442;BME280;43284;47.042;15.498;2023-03-18T02:42:56;97132.25;;;-0.59;67.41
57442;BME280;43284;47.042;15.498;2023-03-18T02:45:34;97130.56;;;-0.64;67.80
57442;BME280;43284;47.042;15.498;2023-03-18T02:48:05;97124.59;;;-0.61;67.47
57442;BME280;43284;47.042;15.498;2023-03-18T02:50:32;97123.72;;;-0.65;67.55
57442;BME280;43284;47.042;15.498;2023-03-18T02:53:01;97120.28;;;-0.64;67.14
57442;BME280;43284;47.042;15.498;2023-03-18T02:55:28;97123.72;;;-0.66;67.83
57442;BME280;43284;47.042;15.498;2023-03-18T02:57:53;97126.34;;;-0.68;67.73
57442;BME280;43284;47.042;15.498;2023-03-18T03:00:20;97128.03;;;-0.73;68.27
57442;BME280;43284;47.042;15.498;2023-03-18T03:02:46;97126.34;;;-0.75;67.85
57442;BME280;43284;47.042;15.498;2023-03-18T03:05:11;97123.78;;;-0.75;68.02
57442;BME280;43284;47.042;15.498;2023-03-18T03:07:37;97122.09;;;-0.79;67.72
57442;BME280;43284;47.042;15.498;2023-03-18T03:10:05;97127.22;;;-0.81;68.56
57442;BME280;43284;47.042;15.498;2023-03-18T03:12:31;97123.81;;;-0.81;69.51
57442;BME280;43284;47.042;15.498;2023-03-18T03:14:57;97133.22;;;-0.84;68.46
57442;BME280;43284;47.042;15.498;2023-03-18T03:17:22;97124.69;;;-0.84;68.70
57442;BME280;43284;47.042;15.498;2023-03-18T03:19:48;97135.78;;;-0.84;68.02
57442;BME280;43284;47.042;15.498;2023-03-18T03:22:15;97132.38;;;-0.82;67.71
57442;BME280;43284;47.042;15.498;2023-03-18T03:24:42;97135.78;;;-0.82;68.10
57442;BME280;43284;47.042;15.498;2023-03-18T03:27:09;97134.09;;;-0.83;68.55
57442;BME280;43284;47.042;15.498;2023-03-18T03:29:35;97134.09;;;-0.83;69.04
57442;BME280;43284;47.042;15.498;2023-03-18T03:32:01;97137.50;;;-0.79;68.77
57442;BME280;43284;47.042;15.498;2023-03-18T03:34:27;97137.50;;;-0.82;68.68
57442;BME280;43284;47.042;15.498;2023-03-18T03:36:52;97140.03;;;-0.81;69.56
57442;BME280;43284;47.042;15.498;2023-03-18T03:39:18;97138.34;;;-0.82;69.12
57442;BME280;43284;47.042;15.498;2023-03-18T03:41:44;97143.50;;;-0.85;68.94
57442;BME280;43284;47.042;15.498;2023-03-18T03:44:09;97150.38;;;-0.95;68.79
57442;BME280;43284;47.042;15.498;2023-03-18T03:46:35;97151.28;;;-1.13;68.11
57442;BME280;43284;47.042;15.498;2023-03-18T03:49:01;97154.72;;;-1.15;68.41
57442;BME280;43284;47.042;15.498;2023-03-18T03:51:27;97147.91;;;-1.18;67.91
57442;BME280;43284;47.042;15.498;2023-03-18T03:53:53;97158.13;;;-1.15;69.28
57442;BME280;43284;47.042;15.498;2023-03-18T03:56:19;97155.56;;;-1.21;69.26
57442;BME280;43284;47.042;15.498;2023-03-18T03:58:45;97155.56;;;-1.22;69.60
57442;BME280;43284;47.042;15.498;2023-03-18T04:01:11;97157.28;;;-1.21;69.48
57442;BME280;43284;47.042;15.498;2023-03-18T04:03:37;97155.59;;;-1.24;70.25
57442;BME280;43284;47.042;15.498;2023-03-18T04:06:02;97156.44;;;-1.25;70.79
57442;BME280;43284;47.042;15.498;2023-03-18T04:08:28;97154.75;;;-1.25;70.24
57442;BME280;43284;47.042;15.498;2023-03-18T04:10:54;97154.75;;;-1.25;70.19
57442;BME280;43284;47.042;15.498;2023-03-18T04:13:20;97160.72;;;-1.38;70.20
57442;BME280;43284;47.042;15.498;2023-03-18T04:15:45;97163.28;;;-1.38;71.38
57442;BME280;43284;47.042;15.498;2023-03-18T04:18:12;97165.03;;;-1.40;71.27
57442;BME280;43284;47.042;15.498;2023-03-18T04:20:39;97159.91;;;-1.41;71.39
57442;BME280;43284;47.042;15.498;2023-03-18T04:23:05;97166.75;;;-1.48;70.25
57442;BME280;43284;47.042;15.498;2023-03-18T04:25:32;97168.44;;;-1.50;70.49
57442;BME280;43284;47.042;15.498;2023-03-18T04:27:57;97163.31;;;-1.50;70.54
57442;BME280;43284;47.042;15.498;2023-03-18T04:30:23;97161.63;;;-1.60;70.93
57442;BME280;43284;47.042;15.498;2023-03-18T04:32:51;97168.44;;;-1.62;70.73
57442;BME280;43284;47.042;15.498;2023-03-18T04:35:17;97171.88;;;-1.63;71.05
57442;BME280;43284;47.042;15.498;2023-03-18T04:37:43;97174.44;;;-1.63;71.35
57442;BME280;43284;47.042;15.498;2023-03-18T04:40:10;97171.03;;;-1.59;70.74
57442;BME280;43284;47.042;15.498;2023-03-18T04:42:37;97173.56;;;-1.58;70.77
57442;BME280;43284;47.042;15.498;2023-03-18T04:45:04;97167.63;;;-1.61;70.59
57442;BME280;43284;47.042;15.498;2023-03-18T04:47:31;97164.19;;;-1.59;71.25
57442;BME280;43284;47.042;15.498;2023-03-18T04:49:57;97170.16;;;-1.58;71.64
57442;BME280;43284;47.042;15.498;2023-03-18T04:52:24;97169.31;;;-1.57;72.45
57442;BME280;43284;47.042;15.498;2023-03-18T04:54:50;97177.84;;;-1.68;71.87
57442;BME280;43284;47.042;15.498;2023-03-18T04:57:15;97177.00;;;-1.65;71.65
57442;BME280;43284;47.042;15.498;2023-03-18T04:59:42;97171.03;;;-1.72;71.57
57442;BME280;43284;47.042;15.498;2023-03-18T05:02:08;97174.44;;;-1.79;71.61
57442;BME280;43284;47.042;15.498;2023-03-18T05:04:34;97180.41;;;-1.80;72.17
57442;BME280;43284;47.042;15.498;2023-03-18T05:06:59;97180.44;;;-1.81;71.96
57442;BME280;43284;47.042;15.498;2023-03-18T05:09:25;97191.53;;;-1.81;71.73
57442;BME280;43284;47.042;15.498;2023-03-18T05:11:52;97192.38;;;-1.80;71.58
57442;BME280;43284;47.042;15.498;2023-03-18T05:14:17;97195.78;;;-1.78;72.60
57442;BME280;43284;47.042;15.498;2023-03-18T05:16:43;97197.50;;;-1.85;72.19
57442;BME280;43284;47.042;15.498;2023-03-18T05:19:09;97199.19;;;-1.87;72.30
57442;BME280;43284;47.042;15.498;2023-03-18T05:21:35;97205.19;;;-1.83;72.35
57442;BME280;43284;47.042;15.498;2023-03-18T05:24:01;97199.22;;;-1.81;72.62
57442;BME280;43284;47.042;15.498;2023-03-18T05:26:27;97202.63;;;-1.76;73.17
57442;BME280;43284;47.042;15.498;2023-03-18T05:28:53;97206.91;;;-1.76;73.14
57442;BME280;43284;47.042;15.498;2023-03-18T05:31:19;97203.47;;;-1.75;72.61
57442;BME280;43284;47.042;15.498;2023-03-18T05:33:45;97208.59;;;-1.72;72.74
57442;BME280;43284;47.042;15.498;2023-03-18T05:36:11;97212.03;;;-1.72;73.49
57442;BME280;43284;47.042;15.498;2023-03-18T05:38:37;97212.03;;;-1.75;73.09
57442;BME280;43284;47.042;15.498;2023-03-18T05:41:03;97207.75;;;-1.71;73.34
57442;BME280;43284;47.042;15.498;2023-03-18T05:43:29;97213.72;;;-1.69;73.26
57442;BME280;43284;47.042;15.498;2023-03-18T05:45:56;97220.56;;;-1.63;74.02
57442;BME280;43284;47.042;15.498;2023-03-18T05:48:22;97215.44;;;-1.62;74.40
57442;BME280;43284;47.042;15.498;2023-03-18T05:50:48;97212.03;;;-1.56;74.31
57442;BME280;43284;47.042;15.498;2023-03-18T05:53:13;97225.72;;;-1.53;73.54
57442;BME280;43284;47.042;15.498;2023-03-18T05:55:41;97213.72;;;-1.48;73.29
57442;BME280;43284;47.042;15.498;2023-03-18T05:58:08;97214.59;;;-1.41;73.65
57442;BME280;43284;47.042;15.498;2023-03-18T06:00:34;97213.72;;;-1.38;73.12
57442;BME280;43284;47.042;15.498;2023-03-18T06:03:01;97211.16;;;-1.32;73.22
57442;BME280;43284;47.042;15.498;2023-03-18T06:05:28;97206.88;;;-1.29;73.25
57442;BME280;43284;47.042;15.498;2023-03-18T06:07:54;97220.56;;;-1.23;73.29
57442;BME280;43284;47.042;15.498;2023-03-18T06:10:21;97213.72;;;-1.20;73.76
57442;BME280;43284;47.042;15.498;2023-03-18T06:12:48;97214.56;;;-1.19;73.05
57442;BME280;43284;47.042;15.498;2023-03-18T06:15:15;97218.00;;;-1.16;72.59
57442;BME280;43284;47.042;15.498;2023-03-18T06:17:40;97214.53;;;-1.12;72.68
57442;BME280;43284;47.042;15.498;2023-03-18T06:20:07;97220.53;;;-1.02;73.28
57442;BME280;43284;47.042;15.498;2023-03-18T06:22:34;97214.50;;;-0.95;72.84
57442;BME280;43284;47.042;15.498;2023-03-18T06:25:00;97219.63;;;-0.89;72.56
57442;BME280;43284;47.042;15.498;2023-03-18T06:27:26;97225.59;;;-0.84;72.62
57442;BME280;43284;47.042;15.498;2023-03-18T06:29:52;97228.16;;;-0.79;72.82
57442;BME280;43284;47.042;15.498;2023-03-18T06:32:18;97224.72;;;-0.73;72.81
57442;BME280;43284;47.042;15.498;2023-03-18T06:34:44;97225.56;;;-0.65;72.00
57442;BME280;43284;47.042;15.498;2023-03-18T06:37:10;97226.38;;;-0.57;71.99
57442;BME280;43284;47.042;15.498;2023-03-18T06:39:36;97230.63;;;-0.51;72.15
57442;BME280;43284;47.042;15.498;2023-03-18T06:42:02;97236.59;;;-0.46;72.11
57442;BME280;43284;47.042;15.498;2023-03-18T06:44:27;97235.72;;;-0.36;71.53
57442;BME280;43284;47.042;15.498;2023-03-18T06:46:53;97244.22;;;-0.25;71.26
57442;BME280;43284;47.042;15.498;2023-03-18T06:49:19;97241.63;;;-0.20;71.35
57442;BME280;43284;47.042;15.498;2023-03-18T06:51:44;97245.03;;;-0.09;71.70
57442;BME280;43284;47.042;15.498;2023-03-18T06:54:10;97250.06;;;0.10;71.34
57442;BME280;43284;47.042;15.498;2023-03-18T06:56:36;97243.06;;;0.30;69.88
57442;BME280;43284;47.042;15.498;2023-03-18T06:59:05;97243.78;;;0.51;68.48
57442;BME280;43284;47.042;15.498;2023-03-18T07:01:32;97240.97;;;0.81;66.05
57442;BME280;43284;47.042;15.498;2023-03-18T07:03:59;97252.06;;;0.87;65.23
57442;BME280;43284;47.042;15.498;2023-03-18T07:06:28;97252.81;;;0.99;64.24
57442;BME280;43284;47.042;15.498;2023-03-18T07:08:56;97256.03;;;1.20;64.50
57442;BME280;43284;47.042;15.498;2023-03-18T07:11:23;97249.63;;;1.58;61.55
57442;BME280;43284;47.042;15.498;2023-03-18T07:13:50;97249.41;;;1.75;61.31
57442;BME280;43284;47.042;15.498;2023-03-18T07:16:15;97251.03;;;1.83;61.66
57442;BME280;43284;47.042;15.498;2023-03-18T07:18:41;97244.75;;;2.04;61.08
57442;BME280;43284;47.042;15.498;2023-03-18T07:21:07;97239.44;;;2.17;60.32
57442;BME280;43284;47.042;15.498;2023-03-18T07:23:34;97242.72;;;2.26;60.00
57442;BME280;43284;47.042;15.498;2023-03-18T07:26:00;97246.94;;;2.32;59.40
57442;BME280;43284;47.042;15.498;2023-03-18T07:28:26;97246.75;;;2.46;59.87
57442;BME280;43284;47.042;15.498;2023-03-18T07:30:52;97247.47;;;2.54;59.65
57442;BME280;43284;47.042;15.498;2023-03-18T07:33:19;97252.91;;;2.92;58.86
57442;BME280;43284;47.042;15.498;2023-03-18T07:35:44;97249.59;;;2.82;59.07
57442;BME280;43284;47.042;15.498;2023-03-18T07:38:10;97257.31;;;2.86;58.84
57442;BME280;43284;47.042;15.498;2023-03-18T07:40:37;97257.88;;;3.02;58.47
57442;BME280;43284;47.042;15.498;2023-03-18T07:43:04;97255.97;;;3.12;56.57
57442;BME280;43284;47.042;15.498;2023-03-18T07:45:30;97257.63;;;3.18;56.85
57442;BME280;43284;47.042;15.498;2023-03-18T07:47:55;97268.72;;;3.23;57.00
57442;BME280;43284;47.042;15.498;2023-03-18T07:50:21;97261.78;;;3.26;56.17
57442;BME280;43284;47.042;15.498;2023-03-18T07:52:47;97259.94;;;3.32;55.59
57442;BME280;43284;47.042;15.498;2023-03-18T07:55:13;97269.72;;;3.62;55.95
57442;BME280;43284;47.042;15.498;2023-03-18T07:57:39;97264.34;;;3.71;55.59
57442;BME280;43284;47.042;15.498;2023-03-18T08:00:06;97271.13;;;3.79;55.18
57442;BME280;43284;47.042;15.498;2023-03-18T08:02:32;97261.13;;;4.02;54.98
57442;BME280;43284;47.042;15.498;2023-03-18T08:05:01;97273.94;;;4.08;53.60
57442;BME280;43284;47.042;15.498;2023-03-18T08:07:27;97270.22;;;4.22;54.95
57442;BME280;43284;47.042;15.498;2023-03-18T08:09:54;97267.84;;;4.51;53.88
57442;BME280;43284;47.042;15.498;2023-03-18T08:12:21;97268.53;;;4.95;51.91
57442;BME280;43284;47.042;15.498;2023-03-18T08:14:47;97272.06;;;4.93;52.50
57442;BME280;43284;47.042;15.498;2023-03-18T08:17:14;97271.66;;;5.10;51.58
57442;BME280;43284;47.042;15.498;2023-03-18T08:19:39;97268.94;;;5.14;51.34
57442;BME280;43284;47.042;15.498;2023-03-18T08:22:05;97273.31;;;5.12;51.43
57442;BME280;43284;47.042;15.498;2023-03-18T08:24:32;97269.91;;;5.10;50.04
57442;BME280;43284;47.042;15.498;2023-03-18T08:26:58;97269.06;;;5.10;50.02
57442;BME280;43284;47.042;15.498;2023-03-18T08:29:24;97274.69;;;5.26;51.04
57442;BME280;43284;47.042;15.498;2023-03-18T08:31:49;97277.97;;;5.32;52.28
57442;BME280;43284;47.042;15.498;2023-03-18T08:34:15;97275.00;;;5.46;50.45
57442;BME280;43284;47.042;15.498;2023-03-18T08:36:41;97278.97;;;5.60;49.74
57442;BME280;43284;47.042;15.498;2023-03-18T08:39:07;97270.78;;;5.75;49.36
57442;BME280;43284;47.042;15.498;2023-03-18T08:41:34;97271.66;;;5.75;48.93
57442;BME280;43284;47.042;15.498;2023-03-18T08:44:01;97274.00;;;5.85;49.36
57442;BME280;43284;47.042;15.498;2023-03-18T08:46:27;97266.09;;;5.88;48.64
57442;BME280;43284;47.042;15.498;2023-03-18T08:48:53;97266.34;;;5.80;47.82
57442;BME280;43284;47.042;15.498;2023-03-18T08:51:20;97271.00;;;6.00;50.38
57442;BME280;43284;47.042;15.498;2023-03-18T08:53:47;97262.50;;;5.95;47.85
57442;BME280;43284;47.042;15.498;2023-03-18T08:56:13;97268.13;;;6.09;49.18
57442;BME280;43284;47.042;15.498;2023-03-18T08:58:39;97267.50;;;6.31;49.34
57442;BME280;43284;47.042;15.498;2023-03-18T09:01:06;97268.94;;;6.41;48.09
57442;BME280;43284;47.042;15.498;2023-03-18T09:03:32;97268.41;;;6.30;47.25
57442;BME280;43284;47.042;15.498;2023-03-18T09:05:59;97263.97;;;6.33;47.28
57442;BME280;43284;47.042;15.498;2023-03-18T09:08:24;97265.34;;;6.45;47.72
57442;BME280;43284;47.042;15.498;2023-03-18T09:10:51;97258.28;;;6.49;47.44
57442;BME280;43284;47.042;15.498;2023-03-18T09:13:21;97262.47;;;6.54;47.07
57442;BME280;43284;47.042;15.498;2023-03-18T09:15:47;97260.38;;;6.66;48.05
57442;BME280;43284;47.042;15.498;2023-03-18T09:18:14;97253.59;;;6.88;45.77
57442;BME280;43284;47.042;15.498;2023-03-18T09:20:41;97255.19;;;6.92;46.17
57442;BME280;43284;47.042;15.498;2023-03-18T09:23:07;97251.06;;;6.87;45.13
57442;BME280;43284;47.042;15.498;2023-03-18T09:25:34;97244.28;;;7.08;45.81
57442;BME280;43284;47.042;15.498;2023-03-18T09:28:00;97251.84;;;7.15;45.51
57442;BME280;43284;47.042;15.498;2023-03-18T09:30:26;97250.00;;;7.44;45.50
57442;BME280;43284;47.042;15.498;2023-03-18T09:32:53;97245.31;;;7.79;45.55
57442;BME280;43284;47.042;15.498;2023-03-18T09:35:18;97252.28;;;7.78;43.50
57442;BME280;43284;47.042;15.498;2023-03-18T09:37:44;97251.63;;;7.72;43.03
57442;BME280;43284;47.042;15.498;2023-03-18T09:40:26;97247.09;;;8.24;44.97
57442;BME280;43284;47.042;15.498;2023-03-18T09:48:51;97239.53;;;8.18;42.65
57442;BME280;43284;47.042;15.498;2023-03-18T09:54:15;97239.97;;;8.29;43.19
57442;BME280;43284;47.042;15.498;2023-03-18T09:56:45;97235.63;;;8.06;41.98
57442;BME280;43284;47.042;15.498;2023-03-18T09:59:18;97240.97;;;8.27;42.92
57442;BME280;43284;47.042;15.498;2023-03-18T10:01:49;97242.63;;;8.28;43.12
57442;BME280;43284;47.042;15.498;2023-03-18T10:04:54;97238.84;;;8.13;41.47
57442;BME280;43284;47.042;15.498;2023-03-18T10:07:26;97240.34;;;8.20;40.77
57442;BME280;43284;47.042;15.498;2023-03-18T10:09:59;97238.41;;;8.49;41.99
57442;BME280;43284;47.042;15.498;2023-03-18T10:12:41;97235.56;;;8.77;44.02
57442;BME280;43284;47.042;15.498;2023-03-18T10:15:17;97232.97;;;8.97;43.96
57442;BME280;43284;47.042;15.498;2023-03-18T10:17:53;97241.19;;;9.08;43.14
57442;BME280;43284;47.042;15.498;2023-03-18T10:22:57;97235.16;;;9.08;39.57
57442;BME280;43284;47.042;15.498;2023-03-18T10:25:34;97239.78;;;9.22;42.11
57442;BME280;43284;47.042;15.498;2023-03-18T10:33:42;97235.88;;;9.53;39.60
57442;BME280;43284;47.042;15.498;2023-03-18T10:36:18;97235.88;;;9.73;39.10
57442;BME280;43284;47.042;15.498;2023-03-18T10:38:49;97237.91;;;9.85;39.54
57442;BME280;43284;47.042;15.498;2023-03-18T10:41:28;97232.94;;;9.79;40.71
57442;BME280;43284;47.042;15.498;2023-03-18T10:43:54;97228.88;;;9.93;40.10
57442;BME280;43284;47.042;15.498;2023-03-18T10:46:21;97227.78;;;9.98;38.84
57442;BME280;43284;47.042;15.498;2023-03-18T10:48:54;97231.72;;;10.07;41.64
57442;BME280;43284;47.042;15.498;2023-03-18T10:51:50;97227.28;;;10.28;41.81
57442;BME280;43284;47.042;15.498;2023-03-18T10:54:29;97232.19;;;10.36;39.77
57442;BME280;43284;47.042;15.498;2023-03-18T10:56:57;97232.81;;;10.22;38.47
57442;BME280;43284;47.042;15.498;2023-03-18T10:59:24;97227.50;;;10.23;39.15
57442;BME280;43284;47.042;15.498;2023-03-18T11:04:46;97215.66;;;10.35;38.37
57442;BME280;43284;47.042;15.498;2023-03-18T11:07:20;97222.00;;;10.29;37.93
57442;BME280;43284;47.042;15.498;2023-03-18T11:09:48;97223.03;;;10.25;40.53
57442;BME280;43284;47.042;15.498;2023-03-18T11:12:16;97217.66;;;10.30;38.87
57442;BME280;43284;47.042;15.498;2023-03-18T11:14:47;97214.59;;;10.76;40.50
57442;BME280;43284;47.042;15.498;2023-03-18T11:17:25;97207.66;;;10.93;37.04
57442;BME280;43284;47.042;15.498;2023-03-18T11:22:25;97207.84;;;11.24;36.97
57442;BME280;43284;47.042;15.498;2023-03-18T11:25:03;97199.34;;;11.20;38.66
57442;BME280;43284;47.042;15.498;2023-03-18T11:27:37;97195.88;;;11.37;39.12
57442;BME280;43284;47.042;15.498;2023-03-18T11:30:54;97189.75;;;11.54;37.50
57442;BME280;43284;47.042;15.498;2023-03-18T11:33:24;97188.34;;;11.98;38.35
57442;BME280;43284;47.042;15.498;2023-03-18T11:35:59;97181.19;;;12.17;36.65
57442;BME280;43284;47.042;15.498;2023-03-18T11:38:33;97179.28;;;11.87;36.25
57442;BME280;43284;47.042;15.498;2023-03-18T11:41:16;97174.56;;;11.61;35.86
57442;BME280;43284;47.042;15.498;2023-03-18T11:46:31;97175.75;;;11.88;37.07
57442;BME280;43284;47.042;15.498;2023-03-18T11:48:58;97163.19;;;11.95;34.14
57442;BME280;43284;47.042;15.498;2023-03-18T11:56:47;97160.91;;;12.05;36.40
57442;BME280;43284;47.042;15.498;2023-03-18T12:04:56;97150.34;;;12.06;34.57
57442;BME280;43284;47.042;15.498;2023-03-18T12:10:41;97138.41;;;12.78;37.05
57442;BME280;43284;47.042;15.498;2023-03-18T12:27:08;97141.91;;;13.24;33.21
57442;BME280;43284;47.042;15.498;2023-03-18T12:29:41;97145.13;;;12.98;33.70
57442;BME280;43284;47.042;15.498;2023-03-18T12:43:23;97147.22;;;13.95;35.28
57442;BME280;43284;47.042;15.498;2023-03-18T12:46:01;97144.59;;;13.95;34.87
57442;BME280;43284;47.042;15.498;2023-03-18T12:48:37;97142.28;;;14.18;34.84
57442;BME280;43284;47.042;15.498;2023-03-18T12:51:13;97141.75;;;14.13;32.87
57442;BME280;43284;47.042;15.498;2023-03-18T12:53:43;97142.66;;;14.26;32.27
57442;BME280;43284;47.042;15.498;2023-03-18T12:56:22;97140.66;;;14.30;35.10
57442;BME280;43284;47.042;15.498;2023-03-18T12:58:54;97140.09;;;14.25;30.56
57442;BME280;43284;47.042;15.498;2023-03-18T13:01:33;97131.91;;;14.29;30.28
57442;BME280;43284;47.042;15.498;2023-03-18T13:04:06;97143.03;;;14.06;30.56
57442;BME280;43284;47.042;15.498;2023-03-18T13:09:26;97143.66;;;13.82;34.74
57442;BME280;43284;47.042;15.498;2023-03-18T13:12:08;97143.53;;;13.98;33.88
57442;BME280;43284;47.042;15.498;2023-03-18T13:14:47;97136.25;;;14.30;34.00
57442;BME280;43284;47.042;15.498;2023-03-18T13:19:57;97134.94;;;14.65;33.70
57442;BME280;43284;47.042;15.498;2023-03-18T13:25:45;97135.72;;;14.79;32.87
57442;BME280;43284;47.042;15.498;2023-03-18T13:42:41;97124.47;;;14.90;31.85
57442;BME280;43284;47.042;15.498;2023-03-18T13:47:39;97116.19;;;15.09;31.92
57442;BME280;43284;47.042;15.498;2023-03-18T13:52:46;97113.63;;;14.95;31.20
57442;BME280;43284;47.042;15.498;2023-03-18T14:01:24;97111.19;;;14.79;32.98
57442;BME280;43284;47.042;15.498;2023-03-18T14:03:58;97101.06;;;14.73;32.87
57442;BME280;43284;47.042;15.498;2023-03-18T14:11:54;97095.91;;;14.44;33.69
57442;BME280;43284;47.042;15.498;2023-03-18T14:14:54;97089.38;;;14.37;33.80
57442;BME280;43284;47.042;15.498;2023-03-18T14:20:35;97094.31;;;14.41;33.54
57442;BME280;43284;47.042;15.498;2023-03-18T14:25:59;97090.66;;;14.44;34.44
57442;BME280;43284;47.042;15.498;2023-03-18T14:28:26;97090.84;;;14.41;33.92
57442;BME280;43284;47.042;15.498;2023-03-18T14:31:24;97089.75;;;14.31;34.66
57442;BME280;43284;47.042;15.498;2023-03-18T14:33:57;97093.44;;;14.28;34.37
57442;BME280;43284;47.042;15.498;2023-03-18T14:41:58;97094.44;;;13.98;34.80
57442;BME280;43284;47.042;15.498;2023-03-18T14:44:45;97106.44;;;14.02;34.94
57442;BME280;43284;47.042;15.498;2023-03-18T14:47:25;97091.41;;;13.77;34.69
57442;BME280;43284;47.042;15.498;2023-03-18T14:50:03;97094.91;;;13.49;34.97
57442;BME280;43284;47.042;15.498;2023-03-18T14:52:38;97101.06;;;13.63;34.87
57442;BME280;43284;47.042;15.498;2023-03-18T14:57:38;97090.84;;;13.44;34.84
57442;BME280;43284;47.042;15.498;2023-03-18T15:00:05;97085.31;;;13.48;35.81
57442;BME280;43284;47.042;15.498;2023-03-18T15:02:33;97090.94;;;13.56;35.80